Terminal Aerodrome Forecast
Issued by NWS

Home | Current Version | Previous Version | Text Only | Print | Product List | Glossary On
Versions: 1 2 3 4 5 6 7 8 9 10 11 12 13 14 15 16 17 18 19 20 21
000
FTUS42 KFFC 250543
TAFPDK
TAF
KPDK 250543Z 2506/2606 00000KT P6SM FEW120 FEW250
     FM251500 24003KT P6SM SCT035
     FM251800 24006KT P6SM VCSH SCT050 PROB30 2519/2523 6SM -TSRA
      BKN040CB
     FM260200 24003KT P6SM SCT100=

USA.gov is the U.S. government's official web portal to all federal, state and local government web resources and services.